Time;durP1;ratioP1;P1;durP2;ratioP2;P2;SDS_P1;SDS_P2;PMS_P1;PMS_P2;Temp;Humidity;BMP_temperature;BMP_pressure;BME280_temperature;BME280_humidity;BME280_pressure;Samples;Min_cycle;Max_cycle;Signal;HPM_P1;HPM_P2
2021/06/28 00:00:12;;;;;;;6.47;4.45;;;;;;;17.65;86.08;101636.19;5162852;27;20471;-53
2021/06/28 00:02:40;;;;;;;5.90;3.80;;;;;;;17.64;86.38;101628.84;5173586;27;20046;-54
2021/06/28 00:05:12;;;;;;;8.15;4.80;;;;;;;17.62;86.48;101628.34;5167787;27;20087;-56
2021/06/28 00:07:40;;;;;;;;;;;;;;;17.49;86.18;101621.69;5173048;27;20090;-62
2021/06/28 00:10:10;;;;;;;6.45;4.03;;;;;;;17.49;86.98;101622.50;5167669;27;19978;-59
2021/06/28 00:12:39;;;;;;;5.45;3.67;;;;;;;17.54;86.82;101624.34;5173846;27;20080;-58
2021/06/28 00:15:11;;;;;;;6.47;4.35;;;;;;;17.54;86.63;101622.38;5175416;27;20062;-59
2021/06/28 00:17:39;;;;;;;7.75;5.07;;;;;;;17.53;86.68;101628.34;5164387;27;20038;-56
2021/06/28 00:20:11;;;;;;;5.82;4.45;;;;;;;17.50;86.63;101620.53;5164319;27;20046;-58
2021/06/28 00:22:39;;;;;;;7.22;5.25;;;;;;;17.48;87.01;101620.00;5154794;27;20487;-55
2021/06/28 00:25:09;;;;;;;6.05;4.50;;;;;;;17.46;86.83;101633.63;5167473;27;20043;-60
2021/06/28 00:27:37;;;;;;;6.00;4.40;;;;;;;17.45;86.66;101621.50;5162811;27;20440;-54
2021/06/28 00:30:26;;;;;;;6.63;4.03;;;;;;;17.42;87.15;101624.13;5164051;27;20121;-60
2021/06/28 00:32:55;;;;;;;7.03;4.32;;;;;;;17.42;87.11;101612.84;5163825;27;20050;-57
2021/06/28 00:35:25;;;;;;;6.40;4.22;;;;;;;17.40;87.15;101627.28;5164137;27;20046;-58
2021/06/28 00:37:52;;;;;;;7.32;4.38;;;;;;;17.39;87.27;101627.59;5171046;27;20042;-55
2021/06/28 00:40:21;;;;;;;7.75;4.90;;;;;;;17.35;87.59;101624.63;5172367;27;20454;-57
2021/06/28 00:42:49;;;;;;;5.72;4.50;;;;;;;17.33;87.59;101621.31;5161215;27;20407;-56
2021/06/28 00:45:23;;;;;;;5.78;4.10;;;;;;;17.31;87.76;101617.13;5171939;27;20042;-57
2021/06/28 00:47:51;;;;;;;8.52;4.10;;;;;;;17.28;87.81;101612.97;5171018;27;20077;-56
2021/06/28 00:50:20;;;;;;;7.90;4.97;;;;;;;17.25;87.86;101616.44;5161341;27;20054;-56
2021/06/28 00:52:55;;;;;;;5.55;3.95;;;;;;;17.23;87.91;101611.13;5165589;27;20047;-55
2021/06/28 00:55:23;;;;;;;6.43;3.65;;;;;;;17.22;88.12;101608.63;5169685;27;20483;-55
2021/06/28 00:57:52;;;;;;;5.85;4.10;;;;;;;17.19;88.31;101615.75;5171185;27;20379;-54
2021/06/28 01:00:20;;;;;;;7.28;5.20;;;;;;;17.18;88.26;101613.28;5171384;27;20099;-55
2021/06/28 01:02:49;;;;;;;8.60;4.95;;;;;;;17.12;88.48;101601.31;5171276;27;20082;-57
2021/06/28 01:05:19;;;;;;;7.63;4.97;;;;;;;17.09;88.74;101603.94;5171094;27;20387;-57
2021/06/28 01:07:47;;;;;;;10.35;4.88;;;;;;;17.07;88.75;101597.78;5170024;27;20038;-57
2021/06/28 01:10:17;;;;;;;7.18;4.82;;;;;;;17.06;88.99;101604.59;5159316;27;20053;-55
2021/06/28 01:12:46;;;;;;;10.68;5.15;;;;;;;17.05;88.90;101602.91;5169719;27;20046;-57
2021/06/28 01:15:15;;;;;;;8.35;4.72;;;;;;;17.01;89.15;101596.25;5171089;27;20115;-57
2021/06/28 01:17:44;;;;;;;6.85;4.90;;;;;;;16.99;89.33;101590.94;5170792;27;20050;-57
2021/06/28 01:20:14;;;;;;;8.30;4.75;;;;;;;16.98;89.52;101594.13;5171332;27;20125;-57
2021/06/28 01:22:44;;;;;;;6.68;4.55;;;;;;;16.96;89.72;101596.44;5171388;27;20474;-58
2021/06/28 01:25:16;;;;;;;6.85;4.05;;;;;;;16.95;89.82;101595.59;5170532;27;20069;-56
2021/06/28 01:27:45;;;;;;;8.88;5.57;;;;;;;16.92;89.85;101595.41;5172288;27;20497;-55
2021/06/28 01:30:17;;;;;;;6.55;4.07;;;;;;;16.92;89.75;101601.03;5171058;27;20516;-56
2021/06/28 01:32:45;;;;;;;7.68;4.63;;;;;;;16.91;89.72;101593.75;5165691;27;20073;-55
2021/06/28 01:35:15;;;;;;;8.82;5.07;;;;;;;16.91;89.88;101593.75;5171736;27;20046;-56
2021/06/28 01:37:45;;;;;;;7.00;4.75;;;;;;;16.88;90.00;101590.41;5166413;27;20129;-57
2021/06/28 01:40:17;;;;;;;8.40;4.85;;;;;;;16.85;89.74;101585.41;5167074;27;20046;-58
2021/06/28 01:42:46;;;;;;;8.65;4.57;;;;;;;16.83;89.80;101589.72;5167408;27;20066;-56
2021/06/28 01:45:18;;;;;;;7.90;5.13;;;;;;;16.80;89.88;101596.81;5161475;27;20449;-56
2021/06/28 01:47:47;;;;;;;8.93;5.50;;;;;;;16.78;89.86;101593.53;5163199;27;20042;-57
2021/06/28 01:50:16;;;;;;;8.75;5.32;;;;;;;16.77;90.09;101594.69;5161920;27;20042;-55
2021/06/28 01:52:45;;;;;;;7.18;4.68;;;;;;;16.78;89.91;101589.88;5162289;27;20061;-57
2021/06/28 01:55:16;;;;;;;8.93;5.30;;;;;;;16.77;89.95;101594.69;5167316;27;20042;-55
2021/06/28 01:57:45;;;;;;;7.80;5.30;;;;;;;16.77;89.86;101589.03;5169846;27;20062;-54
2021/06/28 02:00:16;;;;;;;7.97;5.47;;;;;;;16.76;89.94;101590.19;5159729;27;20472;-57
2021/06/28 02:02:57;;;;;;;8.75;5.43;;;;;;;16.75;89.85;101580.06;5160434;27;20483;-56
2021/06/28 02:05:25;;;;;;;10.15;4.97;;;;;;;16.73;90.04;101579.56;5174950;27;20486;-53
2021/06/28 02:07:53;;;;;;;9.45;5.47;;;;;;;16.75;90.02;101580.06;5161638;27;20082;-56
2021/06/28 02:10:22;;;;;;;6.15;4.50;;;;;;;16.76;90.24;101583.72;5168642;27;20466;-55
2021/06/28 02:12:50;;;;;;;7.18;4.70;;;;;;;16.74;90.12;101577.56;5164672;27;20458;-57
2021/06/28 02:15:23;;;;;;;6.28;4.72;;;;;;;16.75;90.16;101571.63;5158241;27;20494;-58
2021/06/28 02:17:51;;;;;;;6.43;4.05;;;;;;;16.76;90.10;101561.19;5160501;27;20559;-59
2021/06/28 02:20:21;;;;;;;8.02;4.95;;;;;;;16.75;90.18;101554.72;5169023;27;20038;-58
2021/06/28 02:22:49;;;;;;;8.52;4.70;;;;;;;16.77;90.24;101555.22;5169618;27;20046;-59
2021/06/28 02:25:19;;;;;;;7.00;4.07;;;;;;;16.75;90.28;101556.69;5169925;27;20102;-55
2021/06/28 02:27:49;;;;;;;9.85;4.88;;;;;;;16.73;90.45;101554.19;5169028;27;20097;-56
2021/06/28 02:30:18;;;;;;;7.15;5.20;;;;;;;16.73;90.41;101554.19;5169685;27;20573;-56
2021/06/28 02:32:46;;;;;;;8.38;4.88;;;;;;;16.70;91.00;101554.84;5170050;27;20096;-58
2021/06/28 02:35:15;;;;;;;9.52;5.60;;;;;;;16.71;90.91;101556.50;5169366;27;20462;-59
2021/06/28 02:37:43;;;;;;;9.77;5.20;;;;;;;16.71;90.94;101556.50;5169810;27;20042;-57
2021/06/28 02:40:13;;;;;;;6.60;4.43;;;;;;;16.72;90.90;101558.16;5170789;27;20182;-55
2021/06/28 02:42:41;;;;;;;7.03;4.22;;;;;;;16.72;91.05;101552.53;5169077;27;20102;-59
2021/06/28 02:45:11;;;;;;;8.18;4.70;;;;;;;16.72;91.13;101546.06;5164714;27;20486;-59
2021/06/28 02:47:39;;;;;;;7.10;4.18;;;;;;;16.69;91.25;101544.72;5170014;27;20038;-57
2021/06/28 02:50:09;;;;;;;7.78;3.97;;;;;;;16.69;91.42;101539.09;5164682;27;20070;-58
2021/06/28 02:52:37;;;;;;;9.13;4.75;;;;;;;16.70;91.56;101551.19;5166589;27;20046;-57
2021/06/28 02:55:07;;;;;;;8.15;4.65;;;;;;;16.71;91.50;101556.50;5171159;27;20053;-59
2021/06/28 02:57:35;;;;;;;10.80;4.60;;;;;;;16.69;91.42;101547.53;5168300;27;20520;-57
2021/06/28 03:00:07;;;;;;;7.43;4.38;;;;;;;16.69;91.54;101553.19;5164431;27;20034;-59
2021/06/28 03:02:36;;;;;;;6.32;4.15;;;;;;;16.70;91.63;101562.47;5168698;27;20050;-56
2021/06/28 03:05:06;;;;;;;8.93;4.75;;;;;;;16.71;91.97;101556.50;5160826;27;20046;-55
2021/06/28 03:07:34;;;;;;;6.55;4.47;;;;;;;16.73;91.88;101559.84;5161153;27;20087;-54
2021/06/28 03:10:04;;;;;;;7.75;5.45;;;;;;;16.74;92.23;101557.84;5166220;27;20100;-60
2021/06/28 03:12:32;;;;;;;8.68;4.70;;;;;;;16.74;92.46;101564.31;5173836;27;20072;-55
2021/06/28 03:15:00;;;;;;;8.45;4.90;;;;;;;16.75;92.58;101563.16;5173516;27;20046;-52
2021/06/28 03:17:28;;;;;;;8.88;4.85;;;;;;;16.77;92.64;101574.13;5172720;27;20054;-52
2021/06/28 03:19:57;;;;;;;9.07;5.03;;;;;;;16.77;92.72;101580.59;5173393;27;20061;-57
2021/06/28 03:22:25;;;;;;;8.65;5.07;;;;;;;16.82;92.87;101560.69;5173093;27;20050;-56
2021/06/28 03:24:52;;;;;;;7.10;4.65;;;;;;;16.81;93.05;101561.00;5172513;27;20486;-54
2021/06/28 03:27:21;;;;;;;8.18;4.35;;;;;;;16.83;93.09;101559.53;5173199;27;20121;-55
2021/06/28 03:29:49;;;;;;;7.40;4.88;;;;;;;16.85;93.16;101562.03;5173001;27;20038;-55
2021/06/28 03:32:20;;;;;;;8.38;5.20;;;;;;;16.86;93.21;101570.16;5172363;27;20471;-54
2021/06/28 03:34:47;;;;;;;8.23;4.43;;;;;;;16.87;93.18;101574.66;5167124;27;20058;-56
2021/06/28 03:37:17;;;;;;;6.90;4.30;;;;;;;16.90;93.21;101581.63;5166324;27;20038;-58
2021/06/28 03:39:45;;;;;;;7.95;4.88;;;;;;;16.91;93.33;101585.28;5172183;27;20097;-57
2021/06/28 03:42:13;;;;;;;10.48;5.57;;;;;;;16.93;93.45;101586.63;5173916;27;20108;-57
2021/06/28 03:44:41;;;;;;;10.40;5.22;;;;;;;16.93;93.46;101585.78;5172483;27;20058;-54
2021/06/28 03:47:09;;;;;;;7.20;4.53;;;;;;;16.93;93.37;101583.81;5167180;27;20533;-61
2021/06/28 03:49:37;;;;;;;9.55;4.78;;;;;;;16.95;93.19;101573.03;5173522;27;20091;-56
2021/06/28 03:52:05;;;;;;;7.50;4.93;;;;;;;16.94;93.37;101577.00;5168828;27;20494;-54
2021/06/28 03:54:34;;;;;;;8.30;4.80;;;;;;;16.94;93.01;101579.84;5163292;27;20077;-57
2021/06/28 03:57:02;;;;;;;7.88;4.13;;;;;;;16.96;93.26;101587.97;5167686;27;20121;-56
2021/06/28 03:59:30;;;;;;;6.88;4.15;;;;;;;16.97;93.01;101593.28;5171893;27;20375;-60
2021/06/28 04:01:58;;;;;;;6.57;4.43;;;;;;;16.98;93.04;101591.31;5164151;27;20046;-55
2021/06/28 04:04:27;;;;;;;7.43;4.53;;;;;;;16.99;93.03;101588.13;5164691;27;20054;-55
2021/06/28 04:06:55;;;;;;;9.40;5.30;;;;;;;16.99;92.93;101590.94;5163798;27;20481;-57
2021/06/28 04:09:23;;;;;;;7.45;4.95;;;;;;;16.97;93.16;101579.19;5165751;27;20119;-53
2021/06/28 04:11:52;;;;;;;9.20;4.65;;;;;;;16.99;93.21;101587.28;5171437;27;20046;-56
2021/06/28 04:14:20;;;;;;;8.00;4.63;;;;;;;16.99;93.13;101590.13;5171015;27;20126;-57
2021/06/28 04:16:48;;;;;;;7.95;4.82;;;;;;;17.01;93.06;101587.81;5172861;27;20138;-51
2021/06/28 04:19:19;;;;;;;7.82;4.38;;;;;;;17.02;93.23;101583.81;5167542;27;20041;-58
2021/06/28 04:21:46;;;;;;;8.88;5.07;;;;;;;17.04;93.13;101565.44;5171165;27;20559;-54
2021/06/28 04:24:14;;;;;;;9.52;5.30;;;;;;;17.04;92.95;101565.44;5167074;27;20102;-53
2021/06/28 04:26:42;;;;;;;9.43;5.55;;;;;;;17.04;92.78;101553.31;5172632;27;20043;-56
2021/06/28 04:29:11;;;;;;;7.40;5.03;;;;;;;17.06;92.96;101548.19;5166634;27;20494;-57
2021/06/28 04:31:39;;;;;;;9.02;5.20;;;;;;;17.07;93.10;101549.84;5172670;27;20046;-55
2021/06/28 04:34:08;;;;;;;10.48;5.78;;;;;;;17.10;92.92;101547.22;5166607;27;20490;-60
2021/06/28 04:36:36;;;;;;;9.60;5.75;;;;;;;17.12;93.07;101555.34;5172560;27;20132;-57
2021/06/28 04:39:05;;;;;;;8.25;6.18;;;;;;;17.14;93.00;101553.03;5167093;27;20047;-55
2021/06/28 04:41:33;;;;;;;8.35;5.30;;;;;;;17.15;93.24;101551.88;5171266;27;20054;-59
2021/06/28 04:44:01;;;;;;;9.02;5.53;;;;;;;17.15;93.24;101555.53;5167205;27;20078;-56
2021/06/28 04:46:30;;;;;;;8.82;4.88;;;;;;;17.16;93.09;101550.72;5176377;27;20050;-56
2021/06/28 04:48:58;;;;;;;8.73;5.80;;;;;;;17.18;93.28;101551.22;5165930;27;20060;-53
2021/06/28 04:51:26;;;;;;;11.70;7.05;;;;;;;17.17;93.07;101541.13;5162832;27;20045;-55
2021/06/28 04:53:54;;;;;;;9.93;6.20;;;;;;;17.16;92.93;101551.56;5164159;27;20073;-57
2021/06/28 04:56:22;;;;;;;9.13;5.63;;;;;;;17.20;93.17;101557.34;5172123;27;20093;-57
2021/06/28 04:58:49;;;;;;;10.90;6.30;;;;;;;17.22;93.05;101557.84;5171459;27;20402;-54
2021/06/28 05:01:17;;;;;;;10.20;6.07;;;;;;;17.26;93.12;101556.06;5161209;27;20051;-56
2021/06/28 05:03:47;;;;;;;10.60;6.75;;;;;;;17.29;92.91;101558.22;5170859;27;20050;-57
2021/06/28 05:06:15;;;;;;;10.75;6.30;;;;;;;17.30;92.69;101554.25;5171477;27;20038;-54
2021/06/28 05:08:42;;;;;;;8.98;6.13;;;;;;;17.34;92.55;101557.25;5171141;27;20050;-57
2021/06/28 05:11:10;;;;;;;13.30;7.07;;;;;;;17.36;92.43;101566.22;5159488;27;20535;-55
2021/06/28 05:13:38;;;;;;;8.70;4.80;;;;;;;17.39;92.13;101563.53;5168981;27;20073;-57
2021/06/28 05:16:06;;;;;;;9.82;6.38;;;;;;;17.39;91.89;101557.91;5169236;27;20466;-57
2021/06/28 05:18:34;;;;;;;10.25;5.80;;;;;;;17.41;92.02;101569.69;5165321;27;20470;-54
2021/06/28 05:21:04;;;;;;;8.57;5.53;;;;;;;17.40;91.94;101556.75;5171033;27;20043;-54
2021/06/28 05:23:31;;;;;;;10.57;6.05;;;;;;;17.40;91.81;101550.28;5170865;27;20042;-55
2021/06/28 05:25:59;;;;;;;9.20;5.80;;;;;;;17.43;92.01;101558.09;5169083;27;20456;-55
2021/06/28 05:28:27;;;;;;;8.73;5.63;;;;;;;17.43;91.94;101561.75;5170314;27;20042;-56
2021/06/28 05:30:55;;;;;;;11.45;6.82;;;;;;;17.49;91.79;101559.59;5170928;27;20039;-58
2021/06/28 05:33:23;;;;;;;11.27;5.90;;;;;;;17.50;91.72;101561.25;5158983;27;20129;-60
2021/06/28 05:35:51;;;;;;;10.20;6.93;;;;;;;17.52;91.55;101556.97;5173075;27;20436;-54
2021/06/28 05:38:21;;;;;;;9.55;6.45;;;;;;;17.55;91.57;101556.31;5169025;27;20418;-53
2021/06/28 05:40:49;;;;;;;8.38;5.50;;;;;;;17.61;90.95;101553.31;5166555;27;20070;-53
2021/06/28 05:43:16;;;;;;;10.40;6.20;;;;;;;17.68;90.99;101546.03;5167680;27;20043;-52
2021/06/28 05:45:44;;;;;;;9.48;5.50;;;;;;;17.77;91.09;101544.06;5166832;27;20458;-57
2021/06/28 05:48:12;;;;;;;9.45;6.63;;;;;;;17.91;90.27;101538.25;5161705;27;20050;-56
2021/06/28 05:50:40;;;;;;;8.98;6.30;;;;;;;18.02;89.77;101539.56;5162709;27;20042;-53
2021/06/28 05:53:08;;;;;;;10.02;6.53;;;;;;;18.13;89.46;101535.25;5162431;27;20078;-55
2021/06/28 05:55:37;;;;;;;9.93;6.15;;;;;;;18.18;88.74;101520.97;5168705;27;20806;-57
2021/06/28 05:58:06;;;;;;;12.25;7.28;;;;;;;18.21;88.74;101525.91;5170677;27;20121;-54
2021/06/28 06:00:34;;;;;;;8.20;6.40;;;;;;;18.28;88.51;101527.41;5169724;27;20069;-55
2021/06/28 06:03:02;;;;;;;11.00;7.40;;;;;;;18.35;87.68;101527.75;5170541;27;20125;-53
2021/06/28 06:05:30;;;;;;;10.35;7.03;;;;;;;18.43;87.38;101527.72;5170208;27;20047;-58
2021/06/28 06:07:58;;;;;;;10.93;6.60;;;;;;;18.54;87.02;101517.72;5170108;27;20038;-52
2021/06/28 06:10:26;;;;;;;10.38;8.10;;;;;;;18.64;86.39;101525.03;5170167;27;20081;-56
2021/06/28 06:12:55;;;;;;;11.25;6.75;;;;;;;18.68;86.23;101525.19;5169570;27;20529;-57
2021/06/28 06:15:24;;;;;;;9.73;6.25;;;;;;;18.81;86.31;101527.78;5170028;27;20050;-52
2021/06/28 06:17:51;;;;;;;11.45;7.20;;;;;;;18.93;85.45;101533.56;5170322;27;20042;-56
2021/06/28 06:20:20;;;;;;;8.85;6.93;;;;;;;19.08;84.91;101525.69;5169511;27;20042;-53
2021/06/28 06:22:48;;;;;;;7.35;5.63;;;;;;;19.24;84.19;101538.06;5170134;27;20103;-54
2021/06/28 06:25:16;;;;;;;7.63;5.78;;;;;;;19.38;84.07;101543.50;5169775;27;20069;-57
2021/06/28 06:27:44;;;;;;;8.40;6.07;;;;;;;19.45;83.59;101547.44;5170389;27;20085;-57
2021/06/28 06:30:15;;;;;;;9.70;6.35;;;;;;;19.39;83.05;101543.13;5169954;27;20080;-56
2021/06/28 06:32:45;;;;;;;9.38;6.50;;;;;;;19.44;82.83;101550.59;5165325;27;20050;-54
2021/06/28 06:35:14;;;;;;;9.80;6.60;;;;;;;19.57;82.33;101550.41;5170060;27;20443;-54
2021/06/28 06:37:42;;;;;;;10.15;7.40;;;;;;;19.69;81.12;101551.63;5165182;27;20448;-56
2021/06/28 06:40:10;;;;;;;8.50;6.05;;;;;;;19.71;81.26;101552.97;5166375;27;20467;-55
2021/06/28 06:42:38;;;;;;;9.95;6.78;;;;;;;19.84;80.71;101559.50;5166041;27;20560;-57
2021/06/28 06:45:07;;;;;;;10.02;6.72;;;;;;;19.97;79.86;101551.94;5160621;27;20098;-59
2021/06/28 06:47:36;;;;;;;9.65;7.13;;;;;;;20.01;79.27;101553.72;5162429;27;20102;-55
2021/06/28 06:50:06;;;;;;;10.60;7.43;;;;;;;20.13;78.76;101553.78;5160988;27;20209;-57
2021/06/28 06:52:34;;;;;;;10.63;6.78;;;;;;;20.25;78.77;101559.50;5169370;27;20097;-54
2021/06/28 06:55:03;;;;;;;10.15;7.35;;;;;;;20.42;78.21;101554.84;5161886;27;20042;-58
2021/06/28 06:57:31;;;;;;;9.65;7.07;;;;;;;20.53;77.76;101562.59;5159876;27;20126;-57
2021/06/28 06:59:59;;;;;;;8.25;6.45;;;;;;;20.67;77.15;101556.59;5163898;27;20070;-60
2021/06/28 07:02:27;;;;;;;8.70;6.75;;;;;;;20.82;76.75;101555.09;5159604;27;20466;-57
2021/06/28 07:04:56;;;;;;;10.05;6.90;;;;;;;21.03;76.49;101552.16;5169509;27;20512;-59
2021/06/28 07:07:24;;;;;;;10.65;6.10;;;;;;;21.16;75.97;101557.50;5169119;27;20042;-59
2021/06/28 07:09:52;;;;;;;7.00;4.78;;;;;;;21.19;75.77;101565.28;5168908;27;20094;-58
2021/06/28 07:12:20;;;;;;;7.53;5.70;;;;;;;21.10;75.64;101563.75;5169379;27;20046;-59
2021/06/28 07:14:48;;;;;;;8.05;6.75;;;;;;;21.06;75.56;101565.66;5169358;27;20445;-59
2021/06/28 07:17:15;;;;;;;8.95;6.32;;;;;;;21.17;75.49;101549.81;5168790;27;20080;-59
2021/06/28 07:19:43;;;;;;;8.25;6.55;;;;;;;21.30;75.11;101560.00;5169305;27;20117;-60
2021/06/28 07:22:13;;;;;;;9.48;7.20;;;;;;;21.48;74.42;101557.75;5169521;27;20050;-60
2021/06/28 07:24:41;;;;;;;6.75;4.55;;;;;;;21.67;74.30;101552.28;5162389;27;20042;-62
2021/06/28 07:27:09;;;;;;;9.52;6.90;;;;;;;21.88;73.37;101546.44;5160200;27;20038;-59
2021/06/28 07:29:37;;;;;;;10.15;6.63;;;;;;;21.98;72.73;101540.25;5161926;27;20482;-60
2021/06/28 07:32:05;;;;;;;8.07;5.65;;;;;;;21.99;72.61;101519.16;5166958;27;20078;-56
2021/06/28 07:34:33;;;;;;;8.65;5.88;;;;;;;22.12;72.42;101526.50;5164937;27;20049;-60
2021/06/28 07:37:01;;;;;;;12.65;6.72;;;;;;;22.17;72.26;101519.72;5160304;27;20125;-60
2021/06/28 07:39:30;;;;;;;9.25;6.50;;;;;;;22.31;71.92;101518.13;5161955;27;20087;-59
2021/06/28 07:41:58;;;;;;;8.68;6.30;;;;;;;22.31;71.30;101520.97;5168395;27;20148;-60
2021/06/28 07:44:27;;;;;;;6.72;5.15;;;;;;;22.41;71.37;101524.44;5169140;27;20070;-60
2021/06/28 07:46:55;;;;;;;7.85;5.43;;;;;;;22.52;70.83;101505.69;5169147;27;20091;-59
2021/06/28 07:49:23;;;;;;;8.25;5.90;;;;;;;22.57;70.14;101505.41;5169003;27;20391;-60
2021/06/28 07:51:51;;;;;;;8.95;5.38;;;;;;;22.69;70.24;101499.63;5167801;27;20050;-61
2021/06/28 07:54:20;;;;;;;8.88;5.65;;;;;;;22.77;70.16;101510.06;5168625;27;20046;-61
2021/06/28 07:56:49;;;;;;;7.15;4.82;;;;;;;22.91;70.33;101504.72;5169637;27;20049;-60
2021/06/28 07:59:17;;;;;;;8.02;4.90;;;;;;;23.08;70.07;101500.66;5173260;27;20069;-60
2021/06/28 08:01:45;;;;;;;9.68;5.90;;;;;;;23.13;69.22;101497.53;5168039;27;20043;-60
2021/06/28 08:04:13;;;;;;;7.93;5.18;;;;;;;23.23;69.22;101496.97;5173337;27;20042;-61
2021/06/28 08:06:42;;;;;;;8.52;5.18;;;;;;;23.29;68.56;101498.34;5167236;27;20043;-60
2021/06/28 08:09:10;;;;;;;6.63;4.68;;;;;;;23.42;68.63;101501.88;5173380;27;20067;-60
2021/06/28 08:11:38;;;;;;;7.93;4.35;;;;;;;23.48;67.88;101500.41;5163239;27;20042;-64
2021/06/28 08:14:07;;;;;;;7.68;5.03;;;;;;;23.41;67.44;101500.22;5170513;27;20043;-60
2021/06/28 08:16:35;;;;;;;6.90;5.63;;;;;;;23.32;67.28;101491.09;5166336;27;20070;-60
2021/06/28 08:19:04;;;;;;;7.85;5.53;;;;;;;23.29;67.15;101504.03;5172536;27;20456;-60
2021/06/28 08:21:34;;;;;;;6.60;4.70;;;;;;;23.38;67.79;101495.31;5172841;27;20038;-60
2021/06/28 08:24:02;;;;;;;7.78;5.32;;;;;;;23.37;67.01;101502.19;5172702;27;20509;-60
2021/06/28 08:26:32;;;;;;;6.32;5.47;;;;;;;23.36;66.67;101514.78;5166734;27;20944;-63
2021/06/28 08:29:02;;;;;;;8.57;5.63;;;;;;;23.31;67.20;101518.75;5173001;27;20479;-52
2021/06/28 08:31:33;;;;;;;7.40;5.10;;;;;;;23.36;66.92;101517.63;5164741;27;20046;-57
2021/06/28 08:34:13;;;;;;;7.15;5.40;;;;;;;23.52;67.11;101527.00;5170827;27;20054;-59
2021/06/28 08:36:44;;;;;;;6.95;4.53;;;;;;;23.59;66.33;101535.69;5164236;27;20129;-59
2021/06/28 08:39:12;;;;;;;6.60;5.80;;;;;;;23.54;65.59;101526.63;5169374;27;20078;-60
2021/06/28 08:41:43;;;;;;;10.88;5.55;;;;;;;23.33;65.93;101535.47;5175329;27;20054;-58
2021/06/28 08:44:13;;;;;;;8.13;6.20;;;;;;;23.34;65.89;101529.41;5163011;27;20513;-58
2021/06/28 08:46:44;;;;;;;9.70;6.07;;;;;;;23.31;65.98;101529.31;5164488;27;20047;-59
2021/06/28 08:49:13;;;;;;;6.80;5.10;;;;;;;23.42;66.67;101530.38;5162782;27;20053;-60
2021/06/28 08:51:41;;;;;;;8.85;5.50;;;;;;;23.64;66.25;101523.19;5164373;27;20074;-60
2021/06/28 08:54:10;;;;;;;8.18;6.15;;;;;;;23.86;65.88;101521.66;5163738;27;20042;-59
2021/06/28 08:56:40;;;;;;;7.22;5.55;;;;;;;23.91;65.63;101529.91;5171074;27;20078;-60
2021/06/28 08:59:13;;;;;;;9.27;5.63;;;;;;;23.93;65.33;101536.06;5161549;27;20043;-59
2021/06/28 09:01:41;;;;;;;8.80;5.85;;;;;;;24.03;65.62;101533.44;5170880;27;20117;-59
2021/06/28 09:04:10;;;;;;;11.40;5.75;;;;;;;24.07;65.23;101536.38;5171583;27;20041;-59
2021/06/28 09:06:40;;;;;;;8.23;6.07;;;;;;;24.15;65.39;101535.31;5171457;27;20076;-61
2021/06/28 09:09:10;;;;;;;10.38;6.10;;;;;;;24.21;64.13;101539.50;5170553;27;20431;-59
2021/06/28 09:11:40;;;;;;;9.07;6.47;;;;;;;24.30;64.05;101543.00;5171223;27;20451;-57
2021/06/28 09:14:10;;;;;;;8.20;6.45;;;;;;;24.42;64.06;101549.72;5171387;27;20188;-59
2021/06/28 09:16:40;;;;;;;10.85;6.30;;;;;;;24.51;63.24;101553.19;5170961;27;20110;-59
2021/06/28 09:19:12;;;;;;;10.40;7.05;;;;;;;24.56;63.10;101558.59;5171730;27;20117;-59
2021/06/28 09:21:42;;;;;;;8.60;6.85;;;;;;;24.57;62.46;101554.53;5171029;27;20046;-59
2021/06/28 09:24:25;;;;;;;12.82;6.70;;;;;;;24.51;62.04;101551.16;5170519;27;20046;-59
2021/06/28 09:26:55;;;;;;;9.35;6.10;;;;;;;24.44;63.81;101553.88;5171121;27;20070;-57
2021/06/28 09:29:34;;;;;;;8.88;6.20;;;;;;;24.55;63.10;101548.38;5160496;27;20050;-60
2021/06/28 09:32:09;;;;;;;10.25;7.90;;;;;;;24.71;62.21;101546.25;5165885;27;20035;-59
2021/06/28 09:34:40;;;;;;;10.70;6.43;;;;;;;24.81;62.53;101541.91;5171053;27;20042;-61
2021/06/28 09:37:12;;;;;;;11.70;7.22;;;;;;;24.91;63.05;101547.84;5170388;27;20038;-59
2021/06/28 09:39:42;;;;;;;9.20;6.63;;;;;;;25.03;63.19;101547.66;5170692;27;20430;-62
2021/06/28 09:42:12;;;;;;;10.05;7.70;;;;;;;25.18;61.93;101542.22;5170964;27;20144;-59
2021/06/28 09:44:50;;;;;;;8.77;7.13;;;;;;;25.28;62.10;101548.09;5170195;27;20046;-59
2021/06/28 09:47:20;;;;;;;9.32;6.75;;;;;;;25.24;61.59;101552.09;5170809;27;20038;-60
2021/06/28 09:50:16;;;;;;;11.13;6.53;;;;;;;25.15;61.55;101554.41;5170607;27;20210;-59
2021/06/28 09:52:47;;;;;;;8.32;6.38;;;;;;;25.18;61.96;101559.38;5151449;27;20093;-59
2021/06/28 09:55:19;;;;;;;11.32;7.18;;;;;;;25.29;61.67;101554.63;5172667;27;20038;-61
2021/06/28 09:58:10;;;;;;;8.82;7.35;;;;;;;25.40;61.43;101550.75;5170521;27;20096;-60
2021/06/28 10:00:40;;;;;;;9.43;6.80;;;;;;;25.51;60.97;101548.06;5165761;27;20038;-59
2021/06/28 10:03:34;;;;;;;11.57;8.07;;;;;;;25.53;59.88;101541.97;5171073;27;20538;-59
2021/06/28 10:06:11;;;;;;;12.63;7.50;;;;;;;25.60;61.08;101542.88;5158411;27;20095;-58
2021/06/28 10:08:43;;;;;;;11.75;8.68;;;;;;;25.64;59.74;101542.97;5168360;27;20042;-56
2021/06/28 10:11:17;;;;;;;12.43;7.40;;;;;;;25.50;59.81;101543.56;5159099;27;20098;-59
2021/06/28 10:13:47;;;;;;;10.88;6.88;;;;;;;25.55;60.40;101548.94;5165890;27;20046;-62
2021/06/28 10:16:19;;;;;;;9.95;6.50;;;;;;;25.61;59.60;101550.25;5170336;27;20034;-59
2021/06/28 10:18:47;;;;;;;;;;;;;;;25.25;57.99;101543.16;5169583;27;20087;-60
2021/06/28 10:21:16;;;;;;;8.25;7.38;;;;;;;25.31;60.40;101540.81;5169591;27;20379;-61
2021/06/28 10:23:44;;;;;;;11.00;7.03;;;;;;;25.53;61.14;101537.06;5170170;27;20074;-56
2021/06/28 10:26:14;;;;;;;9.30;7.20;;;;;;;25.54;61.39;101538.72;5169454;27;20461;-60
2021/06/28 10:28:43;;;;;;;11.95;8.77;;;;;;;25.48;59.85;101543.13;5169595;27;20042;-60
2021/06/28 10:31:13;;;;;;;10.85;7.25;;;;;;;25.36;60.29;101547.03;5169739;27;20521;-62
2021/06/28 10:33:43;;;;;;;10.77;7.97;;;;;;;25.54;60.44;101538.72;5168878;27;20038;-60
2021/06/28 10:36:13;;;;;;;10.82;7.38;;;;;;;25.76;59.90;101536.22;5170111;27;20042;-63
2021/06/28 10:38:48;;;;;;;9.00;7.23;;;;;;;25.88;59.07;101533.09;5169876;27;20051;-60
2021/06/28 10:41:35;;;;;;;9.60;6.50;;;;;;;26.01;59.03;101534.50;5169093;27;20035;-62
2021/06/28 10:44:04;;;;;;;10.27;6.70;;;;;;;26.12;59.22;101531.78;5160829;27;20034;-60
2021/06/28 10:46:34;;;;;;;9.00;6.35;;;;;;;26.31;59.07;101538.19;5169717;27;20072;-60
2021/06/28 10:49:05;;;;;;;9.27;6.72;;;;;;;26.39;58.12;101550.53;5169207;27;20043;-63
2021/06/28 10:51:42;;;;;;;13.38;6.63;;;;;;;26.29;58.29;101552.06;5171399;27;20039;-57
2021/06/28 10:54:15;;;;;;;7.60;5.80;;;;;;;26.39;58.61;101541.94;5158797;27;20499;-60
2021/06/28 10:56:55;;;;;;;10.32;6.47;;;;;;;26.37;57.99;101542.38;5164928;27;20042;-60
2021/06/28 10:59:25;;;;;;;9.57;6.32;;;;;;;26.30;58.81;101530.84;5160536;27;20038;-59
2021/06/28 11:02:04;;;;;;;8.70;5.80;;;;;;;26.42;58.70;101533.41;5170646;27;20099;-57
2021/06/28 11:04:34;;;;;;;9.32;5.88;;;;;;;26.60;58.10;101544.22;5159746;27;20133;-60
2021/06/28 11:07:18;;;;;;;11.10;5.97;;;;;;;26.74;57.33;101544.41;5169671;27;20053;-59
2021/06/28 11:09:50;;;;;;;12.65;6.20;;;;;;;26.82;57.79;101545.28;5156568;27;20045;-60
2021/06/28 11:12:24;;;;;;;11.05;6.38;;;;;;;26.73;57.42;101534.16;5169382;27;20406;-60
2021/06/28 11:15:00;;;;;;;9.50;5.40;;;;;;;26.56;57.77;101526.22;5165521;27;20035;-59
2021/06/28 11:17:47;;;;;;;9.80;5.32;;;;;;;26.21;57.81;101540.88;5169653;27;20099;-60
2021/06/28 11:20:35;;;;;;;11.18;6.38;;;;;;;25.77;58.25;101535.84;5160772;27;20075;-58
2021/06/28 11:23:07;;;;;;;12.07;6.32;;;;;;;25.48;59.45;101539.44;5168621;27;20042;-59
2021/06/28 11:25:47;;;;;;;10.43;5.65;;;;;;;25.22;60.53;101531.66;5169265;27;20058;-59
2021/06/28 11:28:20;;;;;;;10.23;6.43;;;;;;;25.10;61.36;101524.13;5169523;27;20069;-54
2021/06/28 11:30:51;;;;;;;10.23;5.97;;;;;;;24.96;61.96;101530.44;5169789;27;20053;-60
2021/06/28 11:33:46;;;;;;;10.93;5.85;;;;;;;24.81;62.57;101530.50;5173112;27;20533;-58
2021/06/28 11:36:38;;;;;;;11.25;5.57;;;;;;;24.67;62.51;101534.75;5172532;27;20099;-62